Time;durP1;ratioP1;P1;durP2;ratioP2;P2;SDS_P1;SDS_P2;PMS_P1;PMS_P2;Temp;Humidity;BMP_temperature;BMP_pressure;BME280_temperature;BME280_humidity;BME280_pressure;Samples;Min_cycle;Max_cycle;Signal;HPM_P1;HPM_P2
2024/02/14 05:00:41;;;;;;;2.67;2.58;;;5.10;99.90;;;;;;5820744;23;20303;-70
2024/02/14 05:03:07;;;;;;;3.83;3.33;;;5.10;99.90;;;;;;4972594;28;20204;-71
2024/02/14 05:05:34;;;;;;;4.20;2.10;;;5.10;99.90;;;;;;4971605;28;20211;-71
2024/02/14 05:08:02;;;;;;;1.98;1.98;;;5.10;99.90;;;;;;4968772;28;20664;-71
2024/02/14 05:10:29;;;;;;;1.80;1.80;;;5.10;99.90;;;;;;4973730;28;20237;-70
2024/02/14 05:12:55;;;;;;;2.35;2.20;;;5.10;99.90;;;;;;4972619;28;20227;-70
2024/02/14 05:15:22;;;;;;;3.00;2.90;;;5.10;99.90;;;;;;4970219;28;20803;-71
2024/02/14 05:17:50;;;;;;;6.47;2.65;;;5.10;99.90;;;;;;4970575;28;20217;-71
2024/02/14 05:20:17;;;;;;;3.63;3.22;;;5.10;99.90;;;;;;4971796;28;20213;-71
2024/02/14 05:22:44;;;;;;;2.80;2.60;;;5.10;99.90;;;;;;4971459;28;20210;-70
2024/02/14 05:25:11;;;;;;;2.28;2.15;;;5.10;99.90;;;;;;4970662;28;20672;-72
2024/02/14 05:27:38;;;;;;;3.70;2.70;;;5.10;99.90;;;;;;4971747;28;20214;-71
2024/02/14 05:30:06;;;;;;;2.88;2.67;;;5.20;99.90;;;;;;4970812;28;20300;-71
2024/02/14 05:32:33;;;;;;;2.88;2.45;;;5.20;99.90;;;;;;4971841;28;20237;-72
2024/02/14 05:35:01;;;;;;;3.55;1.75;;;5.20;99.90;;;;;;4970067;28;20587;-71
2024/02/14 05:37:28;;;;;;;2.55;2.40;;;5.20;99.90;;;;;;4971070;28;20215;-71
2024/02/14 05:39:55;;;;;;;2.30;2.20;;;5.20;99.90;;;;;;4971091;28;20224;-71
2024/02/14 05:42:22;;;;;;;2.55;2.40;;;5.30;99.90;;;;;;4967072;28;20229;-70
2024/02/14 05:44:49;;;;;;;1.88;1.88;;;5.30;99.90;;;;;;4972024;28;20205;-72
2024/02/14 05:47:18;;;;;;;1.92;1.73;;;5.30;99.90;;;;;;4972965;28;20209;-72
2024/02/14 05:49:45;;;;;;;2.53;2.42;;;5.30;99.90;;;;;;4972566;28;20256;-72
2024/02/14 05:52:15;;;;;;;2.60;2.50;;;5.40;99.90;;;;;;4971601;28;20225;-71
2024/02/14 05:54:42;;;;;;;5.70;3.40;;;5.40;99.90;;;;;;4972814;28;20214;-72
2024/02/14 05:57:09;;;;;;;2.20;2.10;;;5.40;99.90;;;;;;4970143;28;20213;-72
2024/02/14 05:59:35;;;;;;;3.05;2.70;;;5.40;99.90;;;;;;4973834;28;20238;-72
2024/02/14 06:02:02;;;;;;;2.78;2.53;;;5.40;99.90;;;;;;4966551;28;20703;-72
2024/02/14 06:04:29;;;;;;;2.15;2.05;;;5.40;99.90;;;;;;4971234;28;20256;-72
2024/02/14 06:06:56;;;;;;;3.78;3.47;;;5.40;99.90;;;;;;4965573;28;20205;-71
2024/02/14 06:09:24;;;;;;;4.75;2.35;;;5.40;99.90;;;;;;4965188;28;20210;-71
2024/02/14 06:11:52;;;;;;;3.30;2.97;;;5.40;99.90;;;;;;4970809;28;20233;-71
2024/02/14 06:14:19;;;;;;;4.05;2.47;;;5.40;99.90;;;;;;4969487;28;20763;-71
2024/02/14 06:16:46;;;;;;;5.05;3.78;;;5.40;99.90;;;;;;4969741;28;20654;-71
2024/02/14 06:19:13;;;;;;;3.67;3.38;;;5.40;99.90;;;;;;4969174;28;20598;-70
2024/02/14 06:21:39;;;;;;;7.43;3.30;;;5.40;99.90;;;;;;4970231;28;20233;-71
2024/02/14 06:24:06;;;;;;;3.20;3.00;;;5.40;99.90;;;;;;4968495;28;20218;-71
2024/02/14 06:26:34;;;;;;;4.13;3.72;;;5.40;99.90;;;;;;4971342;28;20216;-70
2024/02/14 06:29:02;;;;;;;3.42;2.97;;;5.50;99.90;;;;;;4967587;28;20223;-71
2024/02/14 06:31:29;;;;;;;3.00;2.60;;;5.50;99.90;;;;;;4971069;28;20234;-70
2024/02/14 06:33:55;;;;;;;3.70;3.47;;;5.50;99.90;;;;;;4971751;28;20206;-70
2024/02/14 06:36:22;;;;;;;2.65;2.55;;;5.50;99.90;;;;;;4970810;28;20808;-72
2024/02/14 06:38:50;;;;;;;2.97;2.72;;;5.60;99.90;;;;;;4971734;28;20230;-71
2024/02/14 06:41:16;;;;;;;3.30;3.05;;;5.60;99.90;;;;;;4971789;28;20225;-71
2024/02/14 06:43:44;;;;;;;3.83;3.00;;;5.70;99.90;;;;;;4968379;28;20680;-70
2024/02/14 06:46:11;;;;;;;3.85;3.65;;;5.60;99.90;;;;;;4966094;28;20225;-70
2024/02/14 06:48:38;;;;;;;2.50;2.40;;;5.70;99.90;;;;;;4974623;28;20236;-69
2024/02/14 06:51:07;;;;;;;1.30;1.15;;;5.70;99.90;;;;;;4974721;28;20250;-71
2024/02/14 06:53:34;;;;;;;6.40;2.60;;;5.70;99.90;;;;;;4974638;28;20814;-70
2024/02/14 06:56:01;;;;;;;5.80;3.72;;;5.70;99.90;;;;;;4973555;28;20727;-70
2024/02/14 06:58:28;;;;;;;3.03;2.83;;;5.70;99.90;;;;;;4972501;28;20240;-70
2024/02/14 07:00:56;;;;;;;3.15;2.92;;;5.70;99.90;;;;;;4967594;28;20569;-70
2024/02/14 07:03:22;;;;;;;3.00;2.80;;;5.80;99.90;;;;;;4971216;28;20224;-70
2024/02/14 07:05:49;;;;;;;3.65;3.35;;;5.80;99.90;;;;;;4973044;28;20587;-69
2024/02/14 07:08:16;;;;;;;3.58;3.38;;;5.80;99.90;;;;;;4971265;28;20212;-71
2024/02/14 07:10:43;;;;;;;4.35;2.53;;;5.90;99.90;;;;;;4971805;28;20299;-70
2024/02/14 07:13:09;;;;;;;3.58;3.33;;;5.90;99.90;;;;;;4972977;28;20210;-70
2024/02/14 07:15:36;;;;;;;44.22;21.88;;;5.80;99.90;;;;;;4973811;28;20210;-70
2024/02/14 07:18:05;;;;;;;33.70;17.40;;;5.80;99.90;;;;;;4972808;28;20210;-71
2024/02/14 07:20:32;;;;;;;11.25;8.38;;;5.90;99.90;;;;;;4973904;28;20241;-70
2024/02/14 07:22:58;;;;;;;9.23;5.53;;;5.90;99.90;;;;;;4973201;28;20221;-71
2024/02/14 07:25:25;;;;;;;6.28;5.45;;;5.90;99.90;;;;;;4974469;28;20537;-69
2024/02/14 07:27:52;;;;;;;7.00;5.93;;;5.90;99.90;;;;;;4973327;28;20245;-69
2024/02/14 07:30:19;;;;;;;9.98;3.83;;;5.90;99.90;;;;;;4973442;28;20202;-70
2024/02/14 07:32:46;;;;;;;3.10;2.90;;;6.00;99.90;;;;;;4970139;28;20650;-70
2024/02/14 07:35:14;;;;;;;5.70;4.55;;;6.00;99.90;;;;;;4972169;28;20665;-70
2024/02/14 07:37:42;;;;;;;6.82;5.70;;;6.00;99.90;;;;;;4970078;28;20240;-73
2024/02/14 07:40:12;;;;;;;8.60;5.68;;;6.00;99.90;;;;;;4972844;28;20836;-70
2024/02/14 07:42:39;;;;;;;4.15;2.75;;;6.00;99.90;;;;;;4973539;28;20221;-71
2024/02/14 07:45:06;;;;;;;5.25;4.75;;;6.00;99.90;;;;;;4972674;28;20226;-71
2024/02/14 07:47:33;;;;;;;4.53;3.97;;;6.10;99.90;;;;;;4973763;28;20220;-71
2024/02/14 07:50:00;;;;;;;8.02;7.25;;;6.00;99.90;;;;;;4972070;28;20213;-69
2024/02/14 07:52:28;;;;;;;4.97;4.57;;;6.10;99.90;;;;;;4973175;28;20229;-70
2024/02/14 07:54:55;;;;;;;6.35;5.68;;;6.10;99.90;;;;;;4973714;28;20230;-70
2024/02/14 07:57:24;;;;;;;4.60;4.20;;;6.20;99.90;;;;;;4973658;28;20230;-70
2024/02/14 07:59:51;;;;;;;3.83;3.55;;;6.20;99.90;;;;;;4973743;28;20236;-70
2024/02/14 08:02:18;;;;;;;4.97;4.18;;;6.20;99.90;;;;;;4973962;28;20721;-71
2024/02/14 08:04:45;;;;;;;4.22;3.92;;;6.20;99.90;;;;;;4969358;28;20665;-70
2024/02/14 08:07:12;;;;;;;4.70;4.30;;;6.20;99.90;;;;;;4973965;28;20213;-70
2024/02/14 08:09:40;;;;;;;6.40;5.88;;;6.20;99.90;;;;;;4972699;28;20215;-70
2024/02/14 08:12:07;;;;;;;6.28;4.35;;;6.20;99.90;;;;;;4973244;28;20623;-69
2024/02/14 08:14:33;;;;;;;6.30;4.53;;;6.30;99.90;;;;;;4972838;28;20234;-70
2024/02/14 08:17:00;;;;;;;4.00;3.35;;;6.40;99.90;;;;;;4974151;28;20204;-70
2024/02/14 08:19:27;;;;;;;3.33;3.00;;;6.30;99.90;;;;;;4972344;28;20232;-69
2024/02/14 08:21:57;;;;;;;5.18;3.25;;;6.30;99.90;;;;;;4966558;28;20231;-70
2024/02/14 08:24:25;;;;;;;2.78;2.58;;;6.30;99.90;;;;;;4964599;28;20686;-70
2024/02/14 08:26:53;;;;;;;5.72;3.97;;;6.40;99.90;;;;;;4971811;28;20210;-70
2024/02/14 08:29:20;;;;;;;4.57;4.18;;;6.40;99.90;;;;;;4968124;28;20223;-71
2024/02/14 08:31:48;;;;;;;3.80;3.50;;;6.40;99.90;;;;;;4972595;28;20238;-71
2024/02/14 08:34:15;;;;;;;3.17;2.97;;;6.40;99.90;;;;;;4971543;28;20756;-69
2024/02/14 08:36:42;;;;;;;4.43;4.13;;;6.50;99.90;;;;;;4970548;28;20230;-70
2024/02/14 08:39:09;;;;;;;7.60;4.25;;;6.50;99.90;;;;;;4971148;28;20631;-69
2024/02/14 08:41:36;;;;;;;8.50;7.57;;;6.60;99.90;;;;;;4971280;28;20256;-70
2024/02/14 08:44:05;;;;;;;4.25;3.95;;;6.60;99.90;;;;;;4971823;28;20230;-69
2024/02/14 08:46:31;;;;;;;4.22;3.92;;;6.60;99.90;;;;;;4966606;28;20648;-68
2024/02/14 08:49:01;;;;;;;3.50;2.92;;;6.70;99.90;;;;;;4971535;28;20208;-70
2024/02/14 08:51:28;;;;;;;4.25;3.92;;;6.70;99.90;;;;;;4972416;28;20235;-71
2024/02/14 08:53:57;;;;;;;2.45;2.25;;;6.80;99.90;;;;;;4971312;28;20230;-71
2024/02/14 08:56:23;;;;;;;4.60;4.20;;;6.80;99.90;;;;;;4971782;28;20226;-70
2024/02/14 08:58:50;;;;;;;2.45;2.35;;;6.90;99.90;;;;;;4968661;28;20214;-69
2024/02/14 09:01:20;;;;;;;2.30;2.20;;;7.00;99.90;;;;;;4969841;28;20254;-69
2024/02/14 09:03:47;;;;;;;3.28;2.95;;;7.10;99.90;;;;;;4967819;28;20222;-70
2024/02/14 09:06:15;;;;;;;3.13;2.80;;;7.10;99.90;;;;;;4972645;28;20212;-69
2024/02/14 09:08:41;;;;;;;2.40;2.30;;;7.10;99.90;;;;;;4973959;28;20396;-71
2024/02/14 09:11:08;;;;;;;2.30;2.20;;;7.10;99.90;;;;;;4979681;28;20227;-69
2024/02/14 09:13:35;;;;;;;2.20;2.10;;;7.20;99.90;;;;;;4982065;28;20222;-71
2024/02/14 09:16:02;;;;;;;2.85;2.65;;;7.30;99.90;;;;;;4980919;28;20212;-70
2024/02/14 09:18:31;;;;;;;2.58;2.40;;;7.30;99.90;;;;;;4980013;28;20222;-71
2024/02/14 09:20:58;;;;;;;3.28;3.00;;;7.40;99.90;;;;;;4973314;28;20251;-70
2024/02/14 09:23:25;;;;;;;3.00;2.83;;;7.40;99.90;;;;;;4974444;28;20222;-70
2024/02/14 09:25:51;;;;;;;2.08;2.00;;;7.40;99.90;;;;;;4978010;28;20334;-69
2024/02/14 09:28:18;;;;;;;1.92;1.83;;;7.50;99.90;;;;;;4979438;28;20667;-69
2024/02/14 09:30:45;;;;;;;2.33;2.22;;;7.50;99.90;;;;;;4979842;28;20327;-69
2024/02/14 09:33:12;;;;;;;2.80;2.60;;;7.60;99.90;;;;;;4982759;28;20212;-69
2024/02/14 09:35:44;;;;;;;10.13;5.88;;;7.60;99.90;;;;;;4981647;28;20219;-69
2024/02/14 09:38:11;;;;;;;3.00;2.80;;;7.60;99.90;;;;;;4972337;28;20569;-70
2024/02/14 09:40:37;;;;;;;2.65;2.55;;;7.70;99.90;;;;;;4971134;28;20232;-70
2024/02/14 09:43:10;;;;;;;2.25;2.15;;;7.70;99.90;;;;;;4968460;28;20204;-70
2024/02/14 09:45:40;;;;;;;2.65;2.50;;;7.70;99.90;;;;;;4971111;28;20307;-70
2024/02/14 09:48:09;;;;;;;7.30;5.97;;;7.80;99.90;;;;;;4968554;28;20304;-71
2024/02/14 09:50:36;;;;;;;6.97;5.80;;;7.80;99.90;;;;;;4970987;28;20221;-70
2024/02/14 09:53:04;;;;;;;4.40;4.00;;;7.90;99.90;;;;;;4965824;28;20247;-70
2024/02/14 09:55:33;;;;;;;7.47;3.92;;;8.00;99.90;;;;;;4968359;28;20208;-71
2024/02/14 09:58:03;;;;;;;4.30;4.00;;;8.00;99.90;;;;;;4970505;28;20635;-70
2024/02/14 10:00:32;;;;;;;3.60;3.35;;;8.10;99.90;;;;;;4970173;28;20771;-69
2024/02/14 10:03:00;;;;;;;5.80;4.97;;;8.10;99.90;;;;;;4970602;28;20694;-70
2024/02/14 10:05:27;;;;;;;6.10;5.50;;;8.20;99.90;;;;;;4964926;28;20255;-69
2024/02/14 10:07:57;;;;;;;2.83;2.72;;;8.30;99.90;;;;;;4966798;28;20575;-70
2024/02/14 10:10:25;;;;;;;1.95;1.95;;;8.40;99.90;;;;;;4957214;28;20202;-69
2024/02/14 10:12:55;;;;;;;3.78;3.58;;;8.50;99.90;;;;;;4967509;28;20213;-70
2024/02/14 10:15:23;;;;;;;1.73;1.70;;;8.50;99.90;;;;;;4968726;28;20212;-70
2024/02/14 10:17:49;;;;;;;3.53;3.22;;;8.60;99.90;;;;;;4964744;28;20211;-71
2024/02/14 10:20:18;;;;;;;2.05;2.05;;;8.50;99.90;;;;;;4967917;28;20232;-70
2024/02/14 10:22:46;;;;;;;4.32;3.83;;;8.60;99.90;;;;;;4969723;28;20204;-71
2024/02/14 10:25:14;;;;;;;2.47;2.38;;;8.60;99.90;;;;;;4971728;28;20208;-73
2024/02/14 10:27:42;;;;;;;2.70;2.50;;;8.60;99.90;;;;;;4965619;28;20687;-70
2024/02/14 10:30:10;;;;;;;2.42;2.25;;;8.60;99.90;;;;;;4973211;28;20204;-70
2024/02/14 10:32:37;;;;;;;1.58;1.55;;;8.60;99.90;;;;;;4972010;28;20209;-70
2024/02/14 10:35:08;;;;;;;2.28;2.25;;;8.60;99.90;;;;;;4964195;28;20626;-71
2024/02/14 10:37:35;;;;;;;2.10;2.08;;;8.70;99.90;;;;;;4960790;28;20204;-70
2024/02/14 10:40:03;;;;;;;3.17;2.97;;;8.70;99.90;;;;;;4973532;28;20602;-72
2024/02/14 10:42:30;;;;;;;1.27;1.20;;;8.70;99.90;;;;;;4974033;28;20239;-70
2024/02/14 10:44:58;;;;;;;2.15;2.10;;;8.70;99.90;;;;;;4966560;28;20201;-70
2024/02/14 10:47:31;;;;;;;1.50;1.50;;;8.80;99.90;;;;;;4972142;28;20212;-70
2024/02/14 10:50:03;;;;;;;6.28;5.78;;;8.80;99.90;;;;;;4970077;28;20201;-71
2024/02/14 10:52:33;;;;;;;8.07;6.05;;;8.90;99.90;;;;;;4973299;28;20236;-71
2024/02/14 10:55:02;;;;;;;1.98;1.88;;;8.90;99.90;;;;;;4966741;28;20221;-72
2024/02/14 10:57:31;;;;;;;4.15;3.85;;;8.90;99.90;;;;;;4968406;28;20296;-71
2024/02/14 11:00:02;;;;;;;3.78;3.55;;;8.90;99.90;;;;;;4971163;28;20695;-72
2024/02/14 11:02:30;;;;;;;1.98;1.98;;;9.00;99.90;;;;;;4971468;28;20730;-70
2024/02/14 11:04:57;;;;;;;4.13;3.75;;;9.00;99.90;;;;;;4970610;28;20296;-72
2024/02/14 11:07:24;;;;;;;3.33;3.13;;;9.00;99.90;;;;;;4967695;28;20213;-70
2024/02/14 11:10:02;;;;;;;1.55;1.45;;;9.10;99.90;;;;;;4973026;28;20621;-70
2024/02/14 11:12:35;;;;;;;2.67;2.58;;;9.10;99.90;;;;;;4964549;28;20228;-70
2024/02/14 11:15:10;;;;;;;3.47;3.38;;;9.20;99.90;;;;;;4970830;28;20204;-70
2024/02/14 11:17:37;;;;;;;3.08;2.78;;;9.20;99.90;;;;;;4970101;28;20373;-70
2024/02/14 11:20:14;;;;;;;2.13;2.13;;;9.30;99.90;;;;;;4973088;28;20559;-69
2024/02/14 11:22:50;;;;;;;2.55;2.45;;;9.30;99.90;;;;;;4972509;28;20214;-69
2024/02/14 11:25:18;;;;;;;2.03;1.92;;;9.20;99.90;;;;;;4973161;28;20651;-70
2024/02/14 11:27:46;;;;;;;2.50;2.40;;;9.20;99.90;;;;;;4972719;28;20260;-69
2024/02/14 11:30:15;;;;;;;1.85;1.85;;;9.20;99.90;;;;;;4972239;28;20203;-69
2024/02/14 11:32:44;;;;;;;4.32;2.92;;;9.20;99.90;;;;;;4967461;28;20573;-69
2024/02/14 11:35:12;;;;;;;2.20;2.10;;;9.20;99.90;;;;;;4971111;28;20209;-69
2024/02/14 11:37:39;;;;;;;1.75;1.75;;;9.30;99.90;;;;;;4971384;28;20264;-69
2024/02/14 11:40:07;;;;;;;2.60;2.47;;;9.40;99.90;;;;;;4972357;28;20323;-69
2024/02/14 11:42:34;;;;;;;2.15;2.05;;;9.40;99.90;;;;;;4972444;28;20237;-69
2024/02/14 11:45:01;;;;;;;3.13;3.03;;;9.40;99.90;;;;;;4971882;28;20214;-70
2024/02/14 11:47:29;;;;;;;3.00;2.25;;;9.50;99.90;;;;;;4972257;28;20218;-70
2024/02/14 11:49:58;;;;;;;2.78;2.60;;;9.60;99.90;;;;;;4972120;28;20209;-69
2024/02/14 11:52:25;;;;;;;2.10;2.00;;;9.60;99.90;;;;;;4965189;28;20234;-69
2024/02/14 11:54:51;;;;;;;3.13;2.80;;;9.60;99.90;;;;;;4972920;28;20205;-70
2024/02/14 11:57:19;;;;;;;2.42;2.33;;;9.70;99.90;;;;;;4972351;28;20392;-69
2024/02/14 11:59:47;;;;;;;2.55;2.00;;;9.60;99.90;;;;;;4971889;28;20209;-68
2024/02/14 12:04:08;;;;;;;2.42;2.30;;;9.80;99.90;;;;;;5082040;27;20569;-70
2024/02/14 12:06:35;;;;;;;1.75;1.75;;;9.90;99.90;;;;;;5064890;28;20249;-68
2024/02/14 12:09:05;;;;;;;2.25;2.15;;;9.90;99.90;;;;;;5061380;28;20216;-69
2024/02/14 12:11:33;;;;;;;2.95;2.50;;;10.00;99.90;;;;;;5061149;28;20236;-68
2024/02/14 12:14:02;;;;;;;3.33;3.03;;;10.10;99.90;;;;;;5063735;28;20204;-68
2024/02/14 12:16:29;;;;;;;3.25;3.05;;;10.10;99.90;;;;;;5063918;28;20204;-69
2024/02/14 12:19:09;;;;;;;3.75;3.45;;;10.10;99.90;;;;;;5063982;28;20205;-69
2024/02/14 12:21:36;;;;;;;4.97;4.57;;;10.20;99.90;;;;;;5052334;28;20318;-68
2024/02/14 12:24:04;;;;;;;3.70;3.50;;;10.20;99.90;;;;;;5055073;28;20296;-67
2024/02/14 12:26:31;;;;;;;3.03;2.83;;;10.20;99.90;;;;;;5061596;28;20236;-68
2024/02/14 12:28:57;;;;;;;3.37;3.07;;;10.20;99.90;;;;;;5059258;28;20219;-70
2024/02/14 12:31:24;;;;;;;2.90;2.70;;;10.30;99.90;;;;;;5058085;28;20487;-69
2024/02/14 12:33:52;;;;;;;3.50;3.30;;;10.30;99.90;;;;;;5061460;28;20464;-67
2024/02/14 12:36:20;;;;;;;5.25;4.80;;;10.30;99.90;;;;;;5063599;28;20228;-68
2024/02/14 12:38:48;;;;;;;7.18;3.90;;;10.30;99.90;;;;;;5047821;28;20657;-68
2024/02/14 12:41:15;;;;;;;4.03;3.72;;;10.40;99.90;;;;;;5050432;28;20715;-69
2024/02/14 12:43:41;;;;;;;4.97;3.20;;;10.40;99.90;;;;;;5049047;28;20661;-69
2024/02/14 12:46:08;;;;;;;4.85;3.38;;;10.40;99.90;;;;;;5054529;28;20473;-69
2024/02/14 12:48:35;;;;;;;3.47;3.17;;;10.40;99.90;;;;;;5059760;28;20203;-70
2024/02/14 12:51:01;;;;;;;3.00;2.90;;;10.40;99.90;;;;;;5052920;28;20225;-68
2024/02/14 12:53:29;;;;;;;5.00;4.60;;;10.40;99.90;;;;;;5059681;28;20678;-68
2024/02/14 12:55:56;;;;;;;3.85;3.35;;;10.40;99.90;;;;;;5056923;28;20240;-68
2024/02/14 12:58:23;;;;;;;4.15;3.78;;;10.40;99.90;;;;;;5051557;28;20207;-69
2024/02/14 13:00:50;;;;;;;8.73;3.70;;;10.50;99.90;;;;;;5048743;28;20248;-70
2024/02/14 13:03:16;;;;;;;4.75;4.10;;;10.50;99.90;;;;;;5052908;28;20250;-69
2024/02/14 13:05:43;;;;;;;3.30;3.10;;;10.50;99.90;;;;;;5051238;28;20595;-70
2024/02/14 13:08:11;;;;;;;7.25;3.90;;;10.50;99.90;;;;;;5051320;28;20217;-68
2024/02/14 13:10:39;;;;;;;4.77;4.17;;;10.50;99.90;;;;;;5056680;28;20225;-69
2024/02/14 13:13:05;;;;;;;5.10;3.70;;;10.50;99.90;;;;;;5057921;28;20469;-69
2024/02/14 13:15:32;;;;;;;6.20;3.50;;;10.50;99.90;;;;;;5042299;28;20480;-69
2024/02/14 13:18:00;;;;;;;4.40;3.35;;;10.50;99.90;;;;;;5046956;28;20468;-70
2024/02/14 13:20:27;;;;;;;2.70;2.50;;;10.60;99.90;;;;;;5037459;28;20205;-69
2024/02/14 13:22:54;;;;;;;5.10;3.93;;;10.60;99.90;;;;;;5051710;28;20703;-69
2024/02/14 13:25:21;;;;;;;4.53;3.40;;;10.60;99.90;;;;;;5049064;28;20472;-70
2024/02/14 13:27:49;;;;;;;4.38;4.00;;;10.50;99.90;;;;;;5044601;28;20468;-69
2024/02/14 13:30:16;;;;;;;6.47;4.95;;;10.40;99.90;;;;;;5042690;28;20551;-68
2024/02/14 13:32:43;;;;;;;2.65;2.45;;;10.30;99.90;;;;;;5052328;28;20225;-69
2024/02/14 13:35:11;;;;;;;2.97;2.63;;;10.30;99.90;;;;;;5051086;28;20265;-71
2024/02/14 13:37:37;;;;;;;3.83;3.53;;;10.20;99.90;;;;;;5039468;28;20202;-70
2024/02/14 13:40:09;;;;;;;3.20;3.03;;;10.20;99.90;;;;;;5041076;28;20230;-69
2024/02/14 13:42:37;;;;;;;3.42;3.13;;;10.20;99.90;;;;;;5045324;28;20233;-69
2024/02/14 13:45:09;;;;;;;4.63;4.25;;;10.20;99.90;;;;;;5050280;28;20291;-69
2024/02/14 13:47:38;;;;;;;7.20;4.30;;;10.20;99.90;;;;;;5048518;28;20205;-69
2024/02/14 13:50:05;;;;;;;5.15;4.78;;;10.20;99.90;;;;;;5047474;28;20468;-68
2024/02/14 13:52:33;;;;;;;2.58;2.38;;;10.20;99.90;;;;;;5047695;28;20225;-67
2024/02/14 13:55:02;;;;;;;4.43;4.10;;;10.20;99.90;;;;;;5043485;28;20213;-67
2024/02/14 13:57:29;;;;;;;4.85;4.55;;;10.20;99.90;;;;;;5049424;28;20912;-68
2024/02/14 13:59:56;;;;;;;3.42;3.17;;;10.20;99.90;;;;;;5049308;28;20240;-69
2024/02/14 14:02:24;;;;;;;2.40;2.20;;;10.20;99.90;;;;;;5045969;28;20245;-68
2024/02/14 14:04:52;;;;;;;3.72;3.45;;;10.10;99.90;;;;;;5044630;28;20573;-69
2024/02/14 14:07:19;;;;;;;4.65;4.25;;;10.20;99.90;;;;;;5044310;28;20206;-69
2024/02/14 14:09:47;;;;;;;3.42;3.13;;;10.20;99.90;;;;;;5048869;28;20216;-69
2024/02/14 14:12:13;;;;;;;3.05;2.83;;;10.20;99.90;;;;;;5044690;28;20231;-69
2024/02/14 14:14:40;;;;;;;3.08;2.83;;;10.20;99.90;;;;;;5045300;28;20209;-70
2024/02/14 14:17:07;;;;;;;3.90;3.45;;;10.20;99.90;;;;;;5035422;28;20208;-69
2024/02/14 14:19:35;;;;;;;4.38;3.30;;;10.20;99.90;;;;;;5032007;28;20220;-68
2024/02/14 14:22:02;;;;;;;8.05;5.82;;;10.20;99.90;;;;;;5034125;28;20225;-70
2024/02/14 14:24:31;;;;;;;5.45;3.55;;;10.30;99.90;;;;;;5040006;28;20736;-68
2024/02/14 14:26:57;;;;;;;7.60;5.95;;;10.20;99.90;;;;;;5035882;28;20262;-68
2024/02/14 14:29:24;;;;;;;4.50;4.10;;;10.20;99.90;;;;;;5032449;28;20219;-68
2024/02/14 14:31:51;;;;;;;4.00;3.70;;;10.20;99.90;;;;;;5043971;28;20229;-70
2024/02/14 14:34:18;;;;;;;7.07;5.57;;;10.20;99.90;;;;;;5034343;28;20226;-69
2024/02/14 14:36:46;;;;;;;4.20;3.90;;;10.20;99.90;;;;;;5037687;28;20667;-69
2024/02/14 14:39:13;;;;;;;5.10;4.70;;;10.20;99.90;;;;;;5032548;28;20206;-70
2024/02/14 14:41:41;;;;;;;4.95;4.35;;;10.20;99.90;;;;;;5039651;28;20226;-68
2024/02/14 14:44:08;;;;;;;7.05;4.90;;;10.30;99.90;;;;;;5035372;28;20569;-69
2024/02/14 14:46:35;;;;;;;4.00;3.70;;;10.30;99.90;;;;;;5036798;28;20217;-69
2024/02/14 14:49:02;;;;;;;5.43;4.70;;;10.30;99.90;;;;;;5034896;28;20748;-68
2024/02/14 14:51:29;;;;;;;4.93;4.55;;;10.30;99.90;;;;;;5033232;28;20256;-69
2024/02/14 14:53:57;;;;;;;4.60;4.20;;;10.20;99.90;;;;;;5032890;28;20546;-70
2024/02/14 14:56:25;;;;;;;5.15;4.72;;;10.30;99.90;;;;;;5039639;28;20367;-68
2024/02/14 14:58:52;;;;;;;4.05;3.63;;;10.20;99.90;;;;;;5038728;28;20232;-68
2024/02/14 15:01:19;;;;;;;6.53;4.00;;;10.30;99.90;;;;;;5040044;28;20241;-68
2024/02/14 15:03:46;;;;;;;5.25;4.35;;;10.20;99.90;;;;;;5030480;28;20224;-67
2024/02/14 15:06:15;;;;;;;4.90;4.35;;;10.30;99.90;;;;;;5040592;28;20620;-68
2024/02/14 15:08:43;;;;;;;4.63;4.03;;;10.30;99.90;;;;;;5031424;28;20215;-67
2024/02/14 15:11:14;;;;;;;4.82;4.40;;;10.30;99.90;;;;;;5035367;28;20482;-68
2024/02/14 15:13:42;;;;;;;4.25;3.95;;;10.30;99.90;;;;;;5032812;28;20259;-69
2024/02/14 15:16:09;;;;;;;4.53;4.13;;;10.30;99.90;;;;;;5038682;28;20641;-69
2024/02/14 15:18:36;;;;;;;5.50;3.67;;;10.30;99.90;;;;;;5036517;28;20217;-69
2024/02/14 15:21:03;;;;;;;4.72;4.35;;;10.30;99.90;;;;;;5038746;28;20229;-69
2024/02/14 15:23:30;;;;;;;4.82;3.80;;;10.30;99.90;;;;;;5038380;28;20276;-68
2024/02/14 15:26:02;;;;;;;4.22;3.83;;;10.30;99.90;;;;;;5038154;28;20202;-68
2024/02/14 15:28:31;;;;;;;4.90;4.45;;;10.30;99.90;;;;;;5031003;28;20664;-67
2024/02/14 15:33:42;;;;;;;5.03;3.80;;;10.20;99.90;;;;;;5040222;28;20490;-69
2024/02/14 15:36:10;;;;;;;4.47;4.07;;;10.20;99.90;;;;;;5042163;28;20359;-68
2024/02/14 15:38:37;;;;;;;4.85;4.40;;;10.30;99.90;;;;;;5038754;28;20466;-68
2024/02/14 15:41:05;;;;;;;11.67;4.20;;;10.20;99.90;;;;;;5039267;28;20321;-69
2024/02/14 15:43:33;;;;;;;5.53;4.57;;;10.20;99.90;;;;;;5040970;28;20543;-69
2024/02/14 15:46:00;;;;;;;5.38;4.85;;;10.20;99.90;;;;;;5041720;28;20214;-69
2024/02/14 15:48:28;;;;;;;6.90;4.32;;;10.20;99.90;;;;;;5038288;28;20303;-68
2024/02/14 15:50:55;;;;;;;4.80;4.00;;;10.20;99.90;;;;;;5034663;28;20233;-68
2024/02/14 15:53:22;;;;;;;6.85;4.80;;;10.20;99.90;;;;;;5054645;28;20209;-68
2024/02/14 15:55:50;;;;;;;6.82;5.45;;;10.30;99.90;;;;;;5055403;28;20210;-69
2024/02/14 15:58:17;;;;;;;4.18;3.78;;;10.20;99.90;;;;;;5045734;28;20210;-68
2024/02/14 16:00:45;;;;;;;6.97;4.05;;;10.30;99.90;;;;;;5047555;28;20247;-68
2024/02/14 16:03:12;;;;;;;4.80;4.25;;;10.40;99.90;;;;;;5042914;28;20244;-68
2024/02/14 16:05:39;;;;;;;4.57;3.95;;;10.40;99.90;;;;;;5034087;28;20214;-69
2024/02/14 16:08:06;;;;;;;5.95;5.45;;;10.40;99.90;;;;;;5031928;28;20654;-68
2024/02/14 16:10:34;;;;;;;4.72;4.28;;;10.40;99.90;;;;;;5036999;28;20218;-68
2024/02/14 16:13:00;;;;;;;7.93;6.97;;;10.50;99.90;;;;;;5033455;28;20210;-69
2024/02/14 16:15:28;;;;;;;7.60;6.03;;;10.50;99.90;;;;;;5035400;28;20213;-70
2024/02/14 16:17:56;;;;;;;5.15;4.65;;;10.40;99.90;;;;;;5039511;28;20272;-69
2024/02/14 16:20:23;;;;;;;6.40;5.07;;;10.50;99.90;;;;;;5035254;28;20225;-68
2024/02/14 16:22:50;;;;;;;14.75;9.55;;;10.50;99.90;;;;;;5034667;28;20220;-70
2024/02/14 16:25:17;;;;;;;8.93;7.67;;;10.50;99.90;;;;;;5037086;28;20301;-70
2024/02/14 16:27:45;;;;;;;16.50;11.37;;;10.50;99.90;;;;;;5033162;28;20979;-68
2024/02/14 16:30:14;;;;;;;8.65;6.25;;;10.50;99.90;;;;;;5041674;28;20915;-68
2024/02/14 16:32:41;;;;;;;6.22;5.18;;;10.50;99.90;;;;;;5041103;28;20210;-69
2024/02/14 16:35:09;;;;;;;8.27;6.22;;;10.50;99.90;;;;;;5036206;28;20225;-68
2024/02/14 16:37:36;;;;;;;20.10;12.13;;;10.50;99.90;;;;;;5032643;28;20203;-68
2024/02/14 16:40:05;;;;;;;36.87;20.87;;;10.50;99.90;;;;;;5035885;28;20676;-68
2024/02/14 16:42:31;;;;;;;19.27;11.60;;;10.50;99.90;;;;;;5032185;28;20491;-69
2024/02/14 16:44:58;;;;;;;24.00;16.02;;;10.50;99.90;;;;;;5043501;28;20247;-68
2024/02/14 16:47:26;;;;;;;7.82;7.03;;;10.50;99.90;;;;;;5035596;28;20213;-68
2024/02/14 16:49:53;;;;;;;6.82;6.13;;;10.50;99.90;;;;;;5038787;28;20301;-68
2024/02/14 16:52:21;;;;;;;11.47;6.73;;;10.50;99.90;;;;;;5042279;28;20230;-68
2024/02/14 16:54:48;;;;;;;7.57;6.27;;;10.50;99.90;;;;;;5035956;28;20488;-69
2024/02/14 16:57:14;;;;;;;9.77;7.63;;;10.50;99.90;;;;;;5034007;28;20469;-68
2024/02/14 16:59:45;;;;;;;14.87;8.73;;;10.50;99.90;;;;;;5035344;28;20210;-68
2024/02/14 17:02:13;;;;;;;9.20;6.55;;;10.50;99.90;;;;;;5041168;28;20491;-68
2024/02/14 17:04:39;;;;;;;9.68;6.40;;;10.50;99.90;;;;;;5039334;28;20232;-69
2024/02/14 17:07:07;;;;;;;10.00;5.95;;;10.40;99.90;;;;;;5040943;28;20213;-69
2024/02/14 17:09:35;;;;;;;10.70;8.10;;;10.30;99.90;;;;;;5040071;28;20248;-68
2024/02/14 17:12:01;;;;;;;10.50;7.85;;;10.30;99.90;;;;;;5038118;28;20339;-69
2024/02/14 17:14:28;;;;;;;11.65;6.60;;;10.20;99.90;;;;;;5043067;28;20197;-69
2024/02/14 17:16:57;;;;;;;36.78;20.60;;;10.20;99.90;;;;;;5040501;28;20232;-68
2024/02/14 17:19:24;;;;;;;29.00;13.82;;;10.10;99.90;;;;;;5037017;28;20223;-69
2024/02/14 17:21:50;;;;;;;12.45;7.40;;;10.10;99.90;;;;;;5039162;28;20232;-67
2024/02/14 17:24:17;;;;;;;11.85;7.88;;;10.10;99.90;;;;;;5042359;28;20227;-69
2024/02/14 17:26:46;;;;;;;10.32;7.68;;;10.10;99.90;;;;;;5042750;28;20537;-69
2024/02/14 17:29:13;;;;;;;11.73;10.07;;;10.10;99.90;;;;;;5038757;28;20601;-69
2024/02/14 17:31:40;;;;;;;12.93;7.60;;;10.10;99.90;;;;;;5041622;28;20628;-69
2024/02/14 17:34:06;;;;;;;18.88;10.85;;;10.10;99.90;;;;;;5041760;28;20200;-69
2024/02/14 17:36:33;;;;;;;23.40;13.85;;;10.10;99.90;;;;;;5037767;28;20207;-68
2024/02/14 17:39:04;;;;;;;14.90;9.98;;;10.00;99.90;;;;;;5036165;28;20236;-69
2024/02/14 17:41:31;;;;;;;14.60;9.50;;;10.00;99.90;;;;;;5040793;28;20295;-69
2024/02/14 17:44:01;;;;;;;13.95;7.10;;;10.00;99.90;;;;;;5040147;28;20638;-70
2024/02/14 17:46:28;;;;;;;9.10;6.38;;;9.90;99.90;;;;;;5039221;28;20226;-68
2024/02/14 17:48:55;;;;;;;11.05;8.65;;;10.00;99.90;;;;;;5038577;28;21956;-69
2024/02/14 17:51:21;;;;;;;9.68;6.55;;;10.00;99.90;;;;;;5038144;28;20675;-68
2024/02/14 17:53:49;;;;;;;9.40;6.28;;;10.00;99.90;;;;;;5039311;28;20209;-69
2024/02/14 17:56:16;;;;;;;14.82;7.03;;;10.00;99.90;;;;;;5041317;28;20214;-68